createdAt,value
2023-04-15T00:01:34.560Z,27.10
2023-04-15T00:11:36.546Z,23.67
2023-04-15T00:21:38.467Z,20.58
2023-04-15T00:31:40.201Z,21.95
2023-04-15T00:41:42.866Z,21.17
2023-04-15T00:51:44.698Z,19.40
2023-04-15T01:01:47.264Z,19.58
2023-04-15T01:11:49.243Z,17.92
2023-04-15T01:21:51.086Z,18.63
2023-04-15T01:31:54.551Z,16.95
2023-04-15T01:41:56.445Z,14.40
2023-04-15T01:51:59.570Z,17.50
2023-04-15T02:02:01.597Z,16.48
2023-04-15T02:12:03.502Z,12.45
2023-04-15T02:22:05.368Z,14.85
2023-04-15T02:32:08.442Z,15.68
2023-04-15T02:42:10.374Z,14.65
2023-04-15T02:52:12.393Z,14.32
2023-04-15T03:02:14.303Z,12.43
2023-04-15T03:12:16.246Z,9.98
2023-04-15T03:22:18.134Z,7.97
2023-04-15T03:32:20.273Z,11.05
2023-04-15T03:42:22.411Z,8.75
2023-04-15T03:52:24.208Z,10.93
2023-04-15T04:02:26.301Z,11.63
2023-04-15T04:12:28.331Z,11.07
2023-04-15T04:22:30.240Z,13.60
2023-04-15T04:32:32.255Z,15.80
2023-04-15T04:42:34.082Z,16.13
2023-04-15T04:52:36.042Z,18.85
2023-04-15T05:02:38.448Z,15.43
2023-04-15T05:12:40.438Z,17.52
2023-04-15T05:22:42.263Z,14.82
2023-04-15T05:32:44.218Z,20.65
2023-04-15T05:42:46.238Z,21.75
2023-04-15T05:52:48.276Z,16.85
2023-04-15T06:02:50.952Z,17.48
2023-04-15T06:12:53.715Z,17.48
2023-04-15T06:22:55.639Z,8.75
2023-04-15T06:32:57.676Z,7.90
2023-04-15T06:42:59.562Z,8.95
2023-04-15T06:53:01.335Z,7.55
2023-04-15T07:03:03.327Z,4.95
2023-04-15T07:13:05.429Z,2.67
2023-04-15T07:23:07.347Z,2.40
2023-04-15T07:33:09.210Z,1.20
2023-04-15T07:43:11.156Z,0.88
2023-04-15T07:53:13.050Z,0.60
2023-04-15T08:03:15.071Z,2.80
2023-04-15T08:13:17.020Z,0.95
2023-04-15T08:23:18.914Z,0.52
2023-04-15T08:33:20.833Z,1.02
2023-04-15T08:43:24.235Z,0.57
2023-04-15T08:53:26.954Z,0.80
2023-04-15T09:03:28.974Z,1.02
2023-04-15T09:13:31.302Z,1.20
2023-04-15T09:23:33.917Z,0.88
2023-04-15T09:33:36.117Z,0.90
2023-04-15T09:43:39.836Z,2.13
2023-04-15T09:53:41.821Z,27.95
2023-04-15T10:03:45.450Z,1.48
2023-04-15T10:13:49.633Z,2.08
2023-04-15T10:23:51.845Z,1.40
2023-04-15T10:33:53.874Z,2.75
2023-04-15T10:44:01.550Z,1.60
2023-04-15T10:54:08.617Z,1.80
2023-04-15T11:04:10.511Z,1.98
2023-04-15T11:14:16.133Z,1.50
2023-04-15T11:24:25.376Z,1.83
2023-04-15T11:34:27.252Z,1.40
2023-04-15T11:44:29.094Z,1.75
2023-04-15T11:54:30.990Z,1.88
2023-04-15T12:04:33.037Z,1.13
2023-04-15T12:14:34.980Z,1.90
2023-04-15T12:24:38.783Z,1.50
2023-04-15T12:34:42.317Z,2.42
2023-04-15T12:44:44.754Z,2.65
2023-04-15T12:54:46.649Z,1.55
2023-04-15T13:04:48.544Z,2.45
2023-04-15T13:14:50.385Z,7.07
2023-04-15T13:24:52.326Z,5.30
2023-04-15T13:34:54.060Z,1.55
2023-04-15T13:44:55.913Z,1.95
2023-04-15T13:55:18.355Z,2.00
2023-04-15T14:05:19.633Z,1.60
2023-04-15T14:15:21.977Z,2.55
2023-04-15T14:25:33.363Z,2.75
2023-04-15T14:35:36.270Z,3.75
2023-04-15T14:45:40.486Z,2.92
2023-04-15T14:55:45.972Z,3.20
2023-04-15T15:05:48.139Z,4.25
2023-04-15T15:15:50.228Z,3.65
2023-04-15T15:25:52.086Z,3.53
2023-04-15T15:35:53.990Z,5.32
2023-04-15T15:45:55.824Z,4.43
2023-04-15T15:55:57.736Z,4.63
2023-04-15T16:05:59.585Z,5.10
2023-04-15T16:16:01.465Z,4.60
2023-04-15T16:26:03.365Z,3.90
2023-04-15T16:36:05.506Z,6.07
2023-04-15T16:46:08.745Z,6.90
2023-04-15T16:56:10.599Z,3.78
2023-04-15T17:06:12.512Z,11.25
2023-04-15T17:16:14.380Z,8.25
2023-04-15T17:26:16.262Z,7.15
2023-04-15T17:36:18.340Z,13.07
2023-04-15T17:46:20.273Z,8.77
2023-04-15T17:56:22.224Z,10.32
2023-04-15T18:06:25.649Z,17.95
2023-04-15T18:16:27.547Z,8.35
2023-04-15T18:26:29.452Z,11.38
2023-04-15T18:36:31.614Z,5.65
2023-04-15T18:46:33.562Z,8.20
2023-04-15T18:56:35.410Z,12.10
2023-04-15T19:06:37.641Z,9.30
2023-04-15T19:16:39.494Z,13.52
2023-04-15T19:26:41.424Z,9.93
2023-04-15T19:36:43.328Z,11.52
2023-04-15T19:46:45.231Z,11.57
2023-04-15T19:56:47.133Z,12.38
2023-04-15T20:06:49.866Z,10.85
2023-04-15T20:16:51.836Z,14.38
2023-04-15T20:26:53.686Z,11.27
2023-04-15T20:36:55.570Z,14.85
2023-04-15T20:46:57.530Z,11.43
2023-04-15T20:56:59.365Z,15.52
2023-04-15T21:07:01.213Z,16.42
2023-04-15T21:17:03.570Z,15.43
2023-04-15T21:27:05.370Z,14.63
2023-04-15T21:37:07.283Z,18.23
2023-04-15T21:47:09.109Z,21.15
2023-04-15T21:57:11.146Z,31.90
2023-04-15T22:07:12.937Z,35.80
2023-04-15T22:17:14.856Z,31.83
2023-04-15T22:27:16.651Z,28.13
2023-04-15T22:37:18.564Z,30.33
2023-04-15T22:47:20.463Z,36.00
2023-04-15T22:57:22.363Z,33.38
2023-04-15T23:07:24.270Z,35.90
2023-04-15T23:17:26.755Z,42.50
2023-04-15T23:27:28.826Z,45.13
2023-04-15T23:37:31.313Z,44.03
2023-04-15T23:47:33.195Z,45.58
2023-04-15T23:57:35.144Z,42.40
